Time;durP1;ratioP1;P1;durP2;ratioP2;P2;SDS_P1;SDS_P2;PMS_P1;PMS_P2;Temp;Humidity;BMP_temperature;BMP_pressure;BME280_temperature;BME280_humidity;BME280_pressure;Samples;Min_cycle;Max_cycle;Signal;HPM_P1;HPM_P2
2022/12/26 00:00:56;;;;;;;13.48;5.55;;;;;;;;;;5051271;28;20045;-76
2022/12/26 00:03:22;;;;;;;13.38;5.10;;;;;;;;;;5045887;28;20037;-77
2022/12/26 00:05:48;;;;;;;8.02;4.90;;;;;;;;;;5047529;28;20023;-78
2022/12/26 00:08:14;;;;;;;8.35;4.45;;;;;;;;;;5046692;28;20048;-77
2022/12/26 00:10:41;;;;;;;9.10;4.47;;;;;;;;;;5043646;28;20513;-78
2022/12/26 00:13:07;;;;;;;7.47;3.25;;;;;;;;;;5050906;28;20028;-78
2022/12/26 00:15:33;;;;;;;6.60;3.92;;;;;;;;;;5060668;28;20036;-77
2022/12/26 00:17:59;;;;;;;9.50;3.90;;;;;;;;;;5049338;28;20425;-78
2022/12/26 00:20:25;;;;;;;19.48;5.90;;;;;;;;;;5047971;28;20250;-78
2022/12/26 00:22:54;;;;;;;13.25;4.90;;;;;;;;;;5052781;28;20033;-77
2022/12/26 00:25:20;;;;;;;8.65;5.32;;;;;;;;;;5051216;28;20021;-78
2022/12/26 00:27:46;;;;;;;7.72;4.38;;;;;;;;;;5047083;28;20037;-77
2022/12/26 00:30:12;;;;;;;9.57;3.85;;;;;;;;;;5048757;28;20042;-77
2022/12/26 00:32:38;;;;;;;5.50;3.30;;;;;;;;;;5048273;28;20038;-78
2022/12/26 00:35:05;;;;;;;7.60;3.45;;;;;;;;;;5050873;28;20479;-77
2022/12/26 00:37:31;;;;;;;6.05;3.42;;;;;;;;;;5049383;28;20104;-78
2022/12/26 00:39:57;;;;;;;6.13;4.03;;;;;;;;;;5043037;28;20030;-77
2022/12/26 00:42:23;;;;;;;6.18;3.20;;;;;;;;;;5043252;28;20371;-77
2022/12/26 00:44:49;;;;;;;7.57;3.80;;;;;;;;;;5037087;28;20021;-77
2022/12/26 00:47:18;;;;;;;9.13;4.18;;;;;;;;;;5050042;28;20487;-78
2022/12/26 00:49:44;;;;;;;4.93;3.65;;;;;;;;;;5048854;28;20564;-77
2022/12/26 00:52:10;;;;;;;7.90;4.07;;;;;;;;;;5053340;28;20534;-77
2022/12/26 00:54:36;;;;;;;11.45;4.38;;;;;;;;;;5042923;28;20079;-77
2022/12/26 00:57:02;;;;;;;7.85;3.97;;;;;;;;;;5040885;28;20036;-77
2022/12/26 00:59:28;;;;;;;11.27;4.55;;;;;;;;;;5038929;28;20114;-76
2022/12/26 01:01:54;;;;;;;11.52;5.95;;;;;;;;;;5045619;28;20028;-76
2022/12/26 01:04:20;;;;;;;13.10;6.40;;;;;;;;;;5039818;28;20039;-77
2022/12/26 01:06:46;;;;;;;8.93;4.43;;;;;;;;;;5045648;28;20049;-78
2022/12/26 01:09:14;;;;;;;11.60;5.55;;;;;;;;;;5046694;28;20028;-77
2022/12/26 01:11:40;;;;;;;11.77;5.97;;;;;;;;;;5052024;28;20386;-78
2022/12/26 01:14:13;;;;;;;10.40;6.00;;;;;;;;;;5047209;28;20119;-78
2022/12/26 01:16:40;;;;;;;4.75;3.47;;;;;;;;;;5045474;28;20282;-77
2022/12/26 01:19:07;;;;;;;4.43;2.90;;;;;;;;;;5049170;28;20056;-77
2022/12/26 01:21:33;;;;;;;7.40;2.97;;;;;;;;;;5044475;28;20083;-76
2022/12/26 01:23:59;;;;;;;7.25;3.22;;;;;;;;;;5058062;28;20025;-77
2022/12/26 01:26:25;;;;;;;4.38;2.78;;;;;;;;;;5047482;28;20491;-77
2022/12/26 01:28:52;;;;;;;5.53;3.00;;;;;;;;;;5048988;28;20079;-76
2022/12/26 01:31:19;;;;;;;7.45;3.03;;;;;;;;;;5045556;28;20162;-77
2022/12/26 01:33:45;;;;;;;5.85;2.60;;;;;;;;;;5040515;28;20057;-77
2022/12/26 01:36:12;;;;;;;7.78;3.40;;;;;;;;;;5058275;28;20044;-78
2022/12/26 01:38:38;;;;;;;7.45;3.45;;;;;;;;;;5045733;28;20028;-77
2022/12/26 01:41:16;;;;;;;5.85;3.38;;;;;;;;;;5057955;28;20086;-78
2022/12/26 01:43:54;;;;;;;7.15;3.50;;;;;;;;;;5042853;28;20087;-77
2022/12/26 01:46:29;;;;;;;7.60;3.75;;;;;;;;;;5043208;28;20029;-77
2022/12/26 01:48:58;;;;;;;4.05;2.70;;;;;;;;;;5037691;28;20484;-77
2022/12/26 01:51:25;;;;;;;6.05;3.60;;;;;;;;;;5047977;28;20041;-78
2022/12/26 01:53:53;;;;;;;7.65;3.55;;;;;;;;;;5046751;28;20021;-77
2022/12/26 01:56:34;;;;;;;6.40;3.72;;;;;;;;;;5047270;28;20032;-77
2022/12/26 01:59:10;;;;;;;5.60;3.58;;;;;;;;;;5053021;28;20034;-77
2022/12/26 02:01:38;;;;;;;7.22;3.45;;;;;;;;;;5045789;28;20022;-78
2022/12/26 02:06:51;;;;;;;8.38;4.65;;;;;;;;;;5045453;28;20826;-77
2022/12/26 02:09:18;;;;;;;10.63;3.90;;;;;;;;;;5033293;28;20059;-76
2022/12/26 02:11:46;;;;;;;8.20;3.53;;;;;;;;;;5048154;28;20104;-78
2022/12/26 02:14:13;;;;;;;5.15;2.97;;;;;;;;;;5045619;28;20029;-78
2022/12/26 02:16:40;;;;;;;8.02;3.75;;;;;;;;;;5048928;28;20364;-77
2022/12/26 02:19:12;;;;;;;6.70;3.28;;;;;;;;;;5052394;28;20468;-77
2022/12/26 02:21:49;;;;;;;8.15;3.42;;;;;;;;;;5051799;28;20040;-77
2022/12/26 02:24:34;;;;;;;11.57;3.92;;;;;;;;;;5040833;28;20032;-77
2022/12/26 02:27:00;;;;;;;9.98;3.83;;;;;;;;;;5045783;28;20545;-77
2022/12/26 02:29:26;;;;;;;10.57;4.75;;;;;;;;;;5034816;28;20026;-77
2022/12/26 02:31:58;;;;;;;8.45;3.75;;;;;;;;;;5039947;28;20614;-77
2022/12/26 02:34:33;;;;;;;6.28;3.35;;;;;;;;;;5041838;28;20033;-77
2022/12/26 02:37:02;;;;;;;5.75;2.95;;;;;;;;;;5053874;28;20034;-77
2022/12/26 02:39:32;;;;;;;6.63;2.92;;;;;;;;;;5047892;28;20025;-77
2022/12/26 02:42:18;;;;;;;8.93;3.13;;;;;;;;;;5037060;28;20598;-77
2022/12/26 02:47:47;;;;;;;6.28;2.90;;;;;;;;;;5034505;28;20028;-77
2022/12/26 03:13:12;;;;;;;3.95;2.65;;;;;;;;;;5051135;28;20032;-76
2022/12/26 03:18:28;;;;;;;8.90;2.47;;;;;;;;;;5049668;28;20044;-77
2022/12/26 03:20:54;;;;;;;8.38;2.53;;;;;;;;;;5042455;28;20040;-76
2022/12/26 03:23:21;;;;;;;5.13;2.60;;;;;;;;;;5050027;28;20025;-77
2022/12/26 03:28:35;;;;;;;8.93;3.15;;;;;;;;;;5045498;28;20040;-77
2022/12/26 03:31:03;;;;;;;4.93;2.53;;;;;;;;;;5058121;28;20275;-78
2022/12/26 03:36:28;;;;;;;2.92;2.28;;;;;;;;;;5050268;28;20040;-79
2022/12/26 03:38:54;;;;;;;5.45;2.40;;;;;;;;;;5041241;28;20037;-77
2022/12/26 04:44:11;;;;;;;;;;;;;;;;;;5044307;28;20452;-77
2022/12/26 04:46:41;;;;;;;6.28;2.03;;;;;;;;;;5034870;28;20011;-78
2022/12/26 04:51:57;;;;;;;4.50;3.17;;;;;;;;;;5047105;28;20052;-77
2022/12/26 04:54:23;;;;;;;4.32;2.03;;;;;;;;;;5043467;28;20029;-77
2022/12/26 04:56:50;;;;;;;4.00;2.28;;;;;;;;;;5046200;28;20483;-78
2022/12/26 04:59:16;;;;;;;4.18;2.47;;;;;;;;;;5043707;28;20037;-77
2022/12/26 05:10:26;;;;;;;3.25;2.33;;;;;;;;;;5043893;28;20036;-77
2022/12/26 05:12:53;;;;;;;6.53;2.30;;;;;;;;;;5045001;28;20025;-78
2022/12/26 05:15:19;;;;;;;3.47;2.33;;;;;;;;;;5047505;28;20052;-77
2022/12/26 05:29:00;;;;;;;7.78;2.58;;;;;;;;;;5047435;28;20395;-77
2022/12/26 05:31:26;;;;;;;2.83;2.17;;;;;;;;;;5049613;28;20522;-76
2022/12/26 05:36:35;;;;;;;2.03;1.85;;;;;;;;;;5046324;28;20051;-77
2022/12/26 05:39:01;;;;;;;4.45;1.98;;;;;;;;;;5062009;28;20030;-77
2022/12/26 05:41:27;;;;;;;3.10;1.77;;;;;;;;;;5043683;28;20033;-77
2022/12/26 05:43:53;;;;;;;2.17;1.95;;;;;;;;;;5049114;28;20017;-77
2022/12/26 05:46:20;;;;;;;4.53;2.45;;;;;;;;;;5047674;28;20057;-78
2022/12/26 05:48:46;;;;;;;2.65;1.98;;;;;;;;;;5042895;28;20067;-77
2022/12/26 05:51:12;;;;;;;6.18;2.10;;;;;;;;;;5040127;28;20029;-77
2022/12/26 05:53:38;;;;;;;5.18;2.47;;;;;;;;;;5047108;28;20029;-77
2022/12/26 05:56:10;;;;;;;4.38;1.65;;;;;;;;;;5054854;28;20438;-77
2022/12/26 05:58:37;;;;;;;4.93;2.78;;;;;;;;;;5051301;28;20033;-77
2022/12/26 06:01:03;;;;;;;3.75;2.25;;;;;;;;;;5040301;28;20033;-77
2022/12/26 06:03:30;;;;;;;4.47;2.50;;;;;;;;;;5048234;28;20483;-78
2022/12/26 06:05:56;;;;;;;4.05;1.92;;;;;;;;;;5046371;28;20031;-78
2022/12/26 06:08:22;;;;;;;5.45;2.35;;;;;;;;;;5032271;28;20512;-78
2022/12/26 06:10:48;;;;;;;5.15;1.90;;;;;;;;;;5047922;28;20037;-78
2022/12/26 06:13:14;;;;;;;3.90;2.53;;;;;;;;;;5046889;28;20117;-78
2022/12/26 06:15:40;;;;;;;5.38;2.63;;;;;;;;;;5044596;28;20029;-77
2022/12/26 06:18:07;;;;;;;1.92;1.63;;;;;;;;;;5048175;28;20032;-77
2022/12/26 06:20:33;;;;;;;5.07;2.08;;;;;;;;;;5043027;28;20082;-77
2022/12/26 06:22:59;;;;;;;2.67;1.83;;;;;;;;;;5036925;28;20025;-77
2022/12/26 06:25:26;;;;;;;2.28;1.73;;;;;;;;;;5043989;28;20044;-77
2022/12/26 06:27:52;;;;;;;3.95;2.28;;;;;;;;;;5045408;28;20076;-77
2022/12/26 06:30:18;;;;;;;2.40;1.80;;;;;;;;;;5058499;28;20040;-77
2022/12/26 06:32:44;;;;;;;2.47;1.60;;;;;;;;;;5036348;28;20025;-78
2022/12/26 06:35:11;;;;;;;12.63;2.75;;;;;;;;;;5043771;28;20029;-77
2022/12/26 06:37:37;;;;;;;4.65;1.80;;;;;;;;;;5029031;28;20116;-77
2022/12/26 06:40:03;;;;;;;1.70;1.60;;;;;;;;;;5037893;28;20071;-78
2022/12/26 06:42:30;;;;;;;2.55;2.13;;;;;;;;;;5045307;28;20079;-78
2022/12/26 06:44:56;;;;;;;3.25;1.65;;;;;;;;;;5048888;28;20072;-78
2022/12/26 06:47:22;;;;;;;2.03;1.60;;;;;;;;;;5053122;28;20094;-77
2022/12/26 06:49:48;;;;;;;5.97;2.30;;;;;;;;;;5042406;28;20056;-77
2022/12/26 06:52:14;;;;;;;2.47;1.58;;;;;;;;;;5039005;28;20132;-77
2022/12/26 06:54:40;;;;;;;2.85;1.70;;;;;;;;;;5043662;28;20066;-77
2022/12/26 06:57:06;;;;;;;4.32;1.90;;;;;;;;;;5047787;28;20045;-77
2022/12/26 06:59:32;;;;;;;7.55;3.53;;;;;;;;;;5048293;28;20032;-78
2022/12/26 07:01:59;;;;;;;3.75;1.70;;;;;;;;;;5040606;28;20056;-78
2022/12/26 07:04:25;;;;;;;2.38;1.77;;;;;;;;;;5041425;28;20025;-77
2022/12/26 07:06:51;;;;;;;4.57;1.77;;;;;;;;;;5048379;28;20021;-78
2022/12/26 07:09:18;;;;;;;6.55;2.55;;;;;;;;;;5046689;28;20061;-78
2022/12/26 07:11:45;;;;;;;6.40;2.10;;;;;;;;;;5046466;28;20104;-77
2022/12/26 07:14:13;;;;;;;5.38;2.25;;;;;;;;;;5039846;28;20059;-77
2022/12/26 07:16:40;;;;;;;2.60;1.83;;;;;;;;;;5041163;28;20029;-77
2022/12/26 07:19:07;;;;;;;5.68;2.50;;;;;;;;;;5048181;28;20396;-77
2022/12/26 07:21:33;;;;;;;2.78;1.60;;;;;;;;;;5048731;28;20072;-77
2022/12/26 07:23:59;;;;;;;1.70;1.58;;;;;;;;;;5037647;28;20024;-77
2022/12/26 07:26:26;;;;;;;2.55;1.92;;;;;;;;;;5051438;28;20049;-77
2022/12/26 07:28:53;;;;;;;3.88;1.75;;;;;;;;;;5049883;28;20120;-77
2022/12/26 07:31:19;;;;;;;8.38;2.03;;;;;;;;;;5032087;28;20025;-78
2022/12/26 07:33:52;;;;;;;3.08;1.67;;;;;;;;;;5046232;28;20491;-77
2022/12/26 07:36:18;;;;;;;5.07;2.78;;;;;;;;;;5044118;28;20116;-77
2022/12/26 07:38:45;;;;;;;3.22;1.95;;;;;;;;;;5035997;28;20029;-77
2022/12/26 07:43:56;;;;;;;2.20;1.90;;;;;;;;;;5039693;28;20490;-77
2022/12/26 07:46:22;;;;;;;2.60;1.77;;;;;;;;;;5040140;28;20037;-77
2022/12/26 07:48:48;;;;;;;4.47;1.60;;;;;;;;;;5039442;28;20048;-77
2022/12/26 07:51:14;;;;;;;3.97;1.85;;;;;;;;;;5039110;28;20021;-77
2022/12/26 07:53:40;;;;;;;2.03;1.60;;;;;;;;;;5035275;28;20033;-78
2022/12/26 07:56:06;;;;;;;3.20;2.67;;;;;;;;;;5045358;28;20040;-78
2022/12/26 07:58:33;;;;;;;3.35;1.75;;;;;;;;;;5042247;28;20093;-77
2022/12/26 08:01:03;;;;;;;4.22;1.95;;;;;;;;;;5055008;28;20418;-77
2022/12/26 08:03:29;;;;;;;4.30;1.90;;;;;;;;;;5046984;28;20087;-76
2022/12/26 08:05:55;;;;;;;2.22;1.80;;;;;;;;;;5044488;28;20025;-77
2022/12/26 08:08:21;;;;;;;7.38;2.33;;;;;;;;;;5050206;28;20078;-77
2022/12/26 08:10:47;;;;;;;6.50;2.03;;;;;;;;;;5062818;28;20022;-78
2022/12/26 08:13:13;;;;;;;2.70;2.33;;;;;;;;;;5041095;28;20021;-78
2022/12/26 08:15:39;;;;;;;2.22;1.80;;;;;;;;;;5039762;28;20132;-77
2022/12/26 08:18:06;;;;;;;7.05;1.85;;;;;;;;;;5045349;28;20395;-78
2022/12/26 08:20:32;;;;;;;2.55;2.25;;;;;;;;;;5039341;28;20029;-77
2022/12/26 08:22:58;;;;;;;4.57;1.73;;;;;;;;;;5039658;28;20043;-77
2022/12/26 08:25:24;;;;;;;7.78;2.20;;;;;;;;;;5042059;28;20021;-77
2022/12/26 08:27:51;;;;;;;2.70;1.90;;;;;;;;;;5064185;28;20042;-76
2022/12/26 08:30:17;;;;;;;3.35;1.73;;;;;;;;;;5052945;28;20031;-78
2022/12/26 08:32:43;;;;;;;4.68;2.10;;;;;;;;;;5056038;28;20112;-77
2022/12/26 08:35:09;;;;;;;4.80;1.80;;;;;;;;;;5051745;28;20036;-76
2022/12/26 08:37:35;;;;;;;5.90;1.95;;;;;;;;;;5049635;28;20036;-78
2022/12/26 08:40:01;;;;;;;5.60;1.92;;;;;;;;;;5044864;28;20029;-78
2022/12/26 08:42:27;;;;;;;3.17;2.10;;;;;;;;;;5049555;28;20294;-77
2022/12/26 08:44:53;;;;;;;2.65;2.10;;;;;;;;;;5042907;28;20029;-77
2022/12/26 08:47:20;;;;;;;2.95;1.80;;;;;;;;;;5045442;28;20566;-78
2022/12/26 08:49:46;;;;;;;1.80;1.70;;;;;;;;;;5050063;28;20041;-77
2022/12/26 08:52:12;;;;;;;4.68;2.03;;;;;;;;;;5039141;28;20132;-78
2022/12/26 08:54:38;;;;;;;4.40;2.00;;;;;;;;;;5050462;28;20021;-77
2022/12/26 08:57:04;;;;;;;14.85;8.07;;;;;;;;;;5040230;28;20037;-77
2022/12/26 08:59:31;;;;;;;11.43;5.70;;;;;;;;;;5050302;28;20548;-77
2022/12/26 09:02:00;;;;;;;21.08;10.55;;;;;;;;;;5050137;28;20432;-77
2022/12/26 09:04:26;;;;;;;16.95;11.02;;;;;;;;;;5063848;28;20108;-76
2022/12/26 09:06:52;;;;;;;8.60;3.35;;;;;;;;;;5048990;28;20040;-77
2022/12/26 09:09:18;;;;;;;5.05;3.38;;;;;;;;;;5048196;28;20080;-77
2022/12/26 09:11:45;;;;;;;3.58;2.25;;;;;;;;;;5054427;28;20132;-77
2022/12/26 09:14:11;;;;;;;7.45;3.58;;;;;;;;;;5044411;28;20033;-77
2022/12/26 09:16:42;;;;;;;6.53;2.40;;;;;;;;;;5051200;28;20032;-77
2022/12/26 09:19:11;;;;;;;10.82;7.10;;;;;;;;;;5047075;28;20391;-77
2022/12/26 09:21:38;;;;;;;6.15;3.08;;;;;;;;;;5034949;28;20025;-77
2022/12/26 09:24:05;;;;;;;8.02;5.00;;;;;;;;;;5048973;28;20029;-78
2022/12/26 09:26:31;;;;;;;13.95;3.03;;;;;;;;;;5047495;28;20045;-77
2022/12/26 09:28:57;;;;;;;3.10;2.38;;;;;;;;;;5034514;28;20479;-77
2022/12/26 09:31:27;;;;;;;8.45;4.65;;;;;;;;;;5053860;28;20035;-77
2022/12/26 09:33:54;;;;;;;9.65;4.03;;;;;;;;;;5050314;28;20043;-77
2022/12/26 09:36:21;;;;;;;2.83;2.20;;;;;;;;;;5047828;28;20021;-77
2022/12/26 09:38:48;;;;;;;3.95;2.42;;;;;;;;;;5042050;28;20033;-77
2022/12/26 09:41:14;;;;;;;8.45;3.08;;;;;;;;;;5071135;28;20147;-77
2022/12/26 09:43:46;;;;;;;4.70;2.70;;;;;;;;;;5047014;28;20017;-77
2022/12/26 09:46:16;;;;;;;6.88;2.78;;;;;;;;;;5043347;28;20059;-77
2022/12/26 09:48:46;;;;;;;4.13;2.80;;;;;;;;;;5054878;28;20029;-78
2022/12/26 09:51:12;;;;;;;3.60;2.28;;;;;;;;;;5045235;28;20628;-77
2022/12/26 09:53:42;;;;;;;4.97;2.53;;;;;;;;;;5040680;28;20037;-77
2022/12/26 09:56:22;;;;;;;2.17;1.90;;;;;;;;;;5052596;28;20028;-77
2022/12/26 09:58:53;;;;;;;4.78;2.15;;;;;;;;;;5049684;28;20036;-77
2022/12/26 10:01:22;;;;;;;4.20;2.08;;;;;;;;;;5041901;28;20434;-77
2022/12/26 10:03:49;;;;;;;6.43;2.60;;;;;;;;;;5043346;28;20028;-78
2022/12/26 10:06:18;;;;;;;4.43;2.10;;;;;;;;;;5038988;28;20071;-77
2022/12/26 10:08:51;;;;;;;2.80;2.15;;;;;;;;;;5039453;28;20048;-77
2022/12/26 10:11:20;;;;;;;7.43;2.38;;;;;;;;;;5042591;28;20065;-78
2022/12/26 10:13:51;;;;;;;7.50;2.40;;;;;;;;;;5043751;28;20032;-77
2022/12/26 10:16:47;;;;;;;2.88;2.53;;;;;;;;;;5044798;28;20025;-77
2022/12/26 10:19:13;;;;;;;3.13;1.95;;;;;;;;;;5041511;28;20107;-76
2022/12/26 10:22:04;;;;;;;8.20;2.85;;;;;;;;;;5054020;28;20017;-77
2022/12/26 10:24:32;;;;;;;3.78;2.00;;;;;;;;;;5042289;28;20029;-77
2022/12/26 10:27:14;;;;;;;4.25;2.72;;;;;;;;;;5044318;28;20049;-78
2022/12/26 10:29:59;;;;;;;3.53;2.60;;;;;;;;;;5037635;28;20027;-78
2022/12/26 10:32:29;;;;;;;2.83;2.17;;;;;;;;;;5047327;28;20020;-77
2022/12/26 10:34:56;;;;;;;3.38;2.17;;;;;;;;;;5048054;28;20114;-77
2022/12/26 10:37:40;;;;;;;5.55;2.33;;;;;;;;;;5037579;28;20029;-77
2022/12/26 10:40:12;;;;;;;4.32;2.72;;;;;;;;;;5033039;28;20068;-77
2022/12/26 10:42:40;;;;;;;3.92;2.30;;;;;;;;;;5048353;28;20115;-77
2022/12/26 10:45:18;;;;;;;3.65;2.30;;;;;;;;;;5059638;28;20497;-78
2022/12/26 10:47:46;;;;;;;5.88;2.38;;;;;;;;;;5037909;28;20025;-77
2022/12/26 10:50:16;;;;;;;4.65;2.88;;;;;;;;;;5038531;28;20029;-79
2022/12/26 10:52:43;;;;;;;4.90;2.13;;;;;;;;;;5031541;28;20043;-79
2022/12/26 10:55:16;;;;;;;3.80;1.90;;;;;;;;;;5046703;28;20096;-78
2022/12/26 10:57:43;;;;;;;9.27;3.03;;;;;;;;;;5036600;28;20071;-78
2022/12/26 11:00:16;;;;;;;7.65;2.88;;;;;;;;;;5039515;28;20110;-78
2022/12/26 11:02:42;;;;;;;3.88;2.13;;;;;;;;;;5048623;28;20026;-78
2022/12/26 11:05:09;;;;;;;4.10;2.20;;;;;;;;;;5046474;28;20041;-78
2022/12/26 11:07:41;;;;;;;3.88;2.13;;;;;;;;;;5053841;28;20021;-78
2022/12/26 11:10:14;;;;;;;4.80;2.72;;;;;;;;;;5050336;28;20048;-78
2022/12/26 11:12:42;;;;;;;3.33;2.13;;;;;;;;;;5047634;28;20099;-77
2022/12/26 11:15:28;;;;;;;5.47;2.33;;;;;;;;;;5051460;28;20036;-77
2022/12/26 11:17:55;;;;;;;3.97;2.75;;;;;;;;;;5050554;28;20487;-77
2022/12/26 11:20:23;;;;;;;2.47;2.20;;;;;;;;;;5040200;28;20159;-77
2022/12/26 11:22:50;;;;;;;3.65;2.33;;;;;;;;;;5040674;28;20025;-77
2022/12/26 11:25:23;;;;;;;6.53;2.35;;;;;;;;;;5047008;28;20282;-77
2022/12/26 11:27:51;;;;;;;4.72;4.22;;;;;;;;;;5041221;28;20522;-78
2022/12/26 11:30:19;;;;;;;5.47;2.50;;;;;;;;;;5042813;28;20039;-77
2022/12/26 11:32:47;;;;;;;4.03;2.33;;;;;;;;;;5045808;28;20162;-77
2022/12/26 11:35:17;;;;;;;3.70;2.40;;;;;;;;;;5053321;28;20494;-77
2022/12/26 11:37:45;;;;;;;2.63;1.88;;;;;;;;;;5049773;28;20032;-78
2022/12/26 11:40:32;;;;;;;4.53;2.67;;;;;;;;;;5041685;28;20033;-79
2022/12/26 11:43:00;;;;;;;5.03;2.17;;;;;;;;;;5052633;28;20045;-78
2022/12/26 11:45:27;;;;;;;4.60;2.00;;;;;;;;;;5047364;28;20429;-77
2022/12/26 11:47:54;;;;;;;6.88;2.80;;;;;;;;;;5045423;28;20668;-78
2022/12/26 11:50:21;;;;;;;3.67;2.30;;;;;;;;;;5045379;28;20326;-77
2022/12/26 11:52:52;;;;;;;4.03;2.25;;;;;;;;;;5046009;28;20059;-78
2022/12/26 11:55:25;;;;;;;4.55;2.40;;;;;;;;;;5043162;28;20095;-78
2022/12/26 11:58:11;;;;;;;4.78;2.40;;;;;;;;;;5041471;28;20029;-77
2022/12/26 12:00:53;;;;;;;7.70;3.75;;;;;;;;;;5044427;28;20028;-78
2022/12/26 12:03:22;;;;;;;5.68;2.85;;;;;;;;;;5045654;28;20029;-77
2022/12/26 12:06:08;;;;;;;3.25;2.78;;;;;;;;;;5047244;28;20024;-79
2022/12/26 12:08:34;;;;;;;5.03;3.67;;;;;;;;;;5036600;28;20484;-77
2022/12/26 12:11:00;;;;;;;4.75;2.38;;;;;;;;;;5049534;28;20064;-78
2022/12/26 12:13:39;;;;;;;5.57;2.08;;;;;;;;;;5044391;28;20036;-79
2022/12/26 12:16:11;;;;;;;4.13;2.30;;;;;;;;;;5045016;28;20029;-79
2022/12/26 12:18:37;;;;;;;5.10;2.80;;;;;;;;;;5038684;28;20051;-77
2022/12/26 12:21:03;;;;;;;5.40;3.25;;;;;;;;;;5043262;28;20037;-78
2022/12/26 12:23:44;;;;;;;4.70;2.70;;;;;;;;;;5039398;28;20419;-78
2022/12/26 12:26:32;;;;;;;4.03;2.40;;;;;;;;;;5056682;28;20514;-78
2022/12/26 12:29:19;;;;;;;4.30;2.38;;;;;;;;;;5040596;28;20048;-82
2022/12/26 12:31:48;;;;;;;3.75;1.98;;;;;;;;;;5040019;28;20029;-78
2022/12/26 12:34:22;;;;;;;5.93;3.30;;;;;;;;;;5042652;28;20408;-79
2022/12/26 12:36:51;;;;;;;2.72;2.30;;;;;;;;;;5041212;28;21847;-79
2022/12/26 12:39:30;;;;;;;4.05;2.83;;;;;;;;;;5041534;28;20457;-78
2022/12/26 12:42:02;;;;;;;2.13;1.92;;;;;;;;;;5042564;28;20045;-78
2022/12/26 12:44:46;;;;;;;3.05;1.88;;;;;;;;;;5046278;28;20053;-79
2022/12/26 12:47:18;;;;;;;3.75;2.85;;;;;;;;;;5047054;28;20137;-78
2022/12/26 12:49:47;;;;;;;3.08;2.00;;;;;;;;;;5044511;28;20021;-78
2022/12/26 12:52:13;;;;;;;6.93;2.67;;;;;;;;;;5044220;28;20366;-77
2022/12/26 12:54:56;;;;;;;2.72;1.85;;;;;;;;;;5046925;28;20037;-77
2022/12/26 12:57:25;;;;;;;3.90;2.25;;;;;;;;;;5045124;28;20085;-77
2022/12/26 12:59:56;;;;;;;2.75;2.13;;;;;;;;;;5041832;28;20037;-77
2022/12/26 13:02:32;;;;;;;2.67;2.30;;;;;;;;;;5044681;28;20083;-79
2022/12/26 13:05:14;;;;;;;3.63;2.10;;;;;;;;;;5039298;28;20025;-78
2022/12/26 13:07:42;;;;;;;2.45;2.00;;;;;;;;;;5044619;28;20114;-77
2022/12/26 13:10:20;;;;;;;2.10;1.90;;;;;;;;;;5038792;28;21442;-78
2022/12/26 13:12:47;;;;;;;2.88;2.25;;;;;;;;;;5044540;28;20041;-77
2022/12/26 13:15:24;;;;;;;2.80;2.50;;;;;;;;;;5042993;28;20029;-78
2022/12/26 13:18:00;;;;;;;2.75;2.15;;;;;;;;;;5041424;28;20033;-78
2022/12/26 13:20:45;;;;;;;3.30;2.20;;;;;;;;;;5040972;28;20104;-78
2022/12/26 13:26:10;;;;;;;2.67;2.13;;;;;;;;;;5041910;28;20048;-77
2022/12/26 13:28:45;;;;;;;3.58;2.20;;;;;;;;;;5040891;28;20044;-78
2022/12/26 13:31:12;;;;;;;2.97;1.88;;;;;;;;;;5039189;28;20052;-79
2022/12/26 13:33:40;;;;;;;4.30;2.60;;;;;;;;;;5040642;28;20435;-78
2022/12/26 13:36:27;;;;;;;3.72;2.40;;;;;;;;;;5046581;28;20033;-77
2022/12/26 13:38:56;;;;;;;3.92;2.20;;;;;;;;;;5040909;28;20029;-78
2022/12/26 13:44:18;;;;;;;6.32;3.30;;;;;;;;;;5042854;28;20149;-77
2022/12/26 13:46:47;;;;;;;3.25;2.42;;;;;;;;;;5038842;28;20112;-78
2022/12/26 13:49:37;;;;;;;3.00;2.60;;;;;;;;;;5040137;28;20025;-77
2022/12/26 13:52:09;;;;;;;3.58;2.20;;;;;;;;;;5041355;28;20115;-77
2022/12/26 13:54:36;;;;;;;3.42;2.05;;;;;;;;;;5040958;28;20029;-78
2022/12/26 13:57:21;;;;;;;4.80;2.20;;;;;;;;;;5043146;28;20109;-78
2022/12/26 14:00:05;;;;;;;5.18;2.67;;;;;;;;;;5042216;28;20029;-78
2022/12/26 14:02:46;;;;;;;2.75;2.38;;;;;;;;;;5043927;28;20085;-79
2022/12/26 14:05:30;;;;;;;3.72;2.30;;;;;;;;;;5042129;28;20413;-78
2022/12/26 14:08:00;;;;;;;5.90;3.55;;;;;;;;;;5040004;28;20052;-78
2022/12/26 14:10:32;;;;;;;6.47;5.43;;;;;;;;;;5044401;28;20033;-77
2022/12/26 14:12:58;;;;;;;7.03;6.43;;;;;;;;;;5041971;28;20033;-78
2022/12/26 14:15:38;;;;;;;18.17;12.65;;;;;;;;;;5044608;28;20028;-78
2022/12/26 14:18:10;;;;;;;32.05;27.00;;;;;;;;;;5033005;28;20029;-77
2022/12/26 14:20:52;;;;;;;32.08;25.45;;;;;;;;;;5041362;28;20032;-78
2022/12/26 14:23:30;;;;;;;13.02;10.85;;;;;;;;;;5041297;28;20558;-76
2022/12/26 14:26:22;;;;;;;9.40;7.38;;;;;;;;;;5042115;28;20051;-77
2022/12/26 14:29:07;;;;;;;9.30;8.38;;;;;;;;;;5042483;28;20024;-77
2022/12/26 14:31:44;;;;;;;10.82;9.70;;;;;;;;;;5039000;28;20036;-77
2022/12/26 14:34:25;;;;;;;11.32;9.35;;;;;;;;;;5043803;28;20025;-78
2022/12/26 14:36:54;;;;;;;24.38;17.42;;;;;;;;;;5039982;28;20052;-77
2022/12/26 14:39:39;;;;;;;12.85;10.02;;;;;;;;;;5036022;28;20284;-77
2022/12/26 14:44:51;;;;;;;9.23;6.68;;;;;;;;;;5035621;28;20044;-77
2022/12/26 14:47:35;;;;;;;6.45;4.65;;;;;;;;;;5036067;28;20118;-78
2022/12/26 14:50:20;;;;;;;10.40;7.80;;;;;;;;;;5043190;28;20272;-78
2022/12/26 14:52:46;;;;;;;5.40;3.70;;;;;;;;;;5040439;28;20698;-77
2022/12/26 14:55:31;;;;;;;9.00;5.45;;;;;;;;;;5039384;28;20098;-78
2022/12/26 14:58:17;;;;;;;6.03;4.20;;;;;;;;;;5041963;28;20024;-78
2022/12/26 15:00:44;;;;;;;8.10;5.30;;;;;;;;;;5042573;28;20032;-76
2022/12/26 15:03:29;;;;;;;7.15;4.10;;;;;;;;;;5042135;28;20387;-77
2022/12/26 15:05:57;;;;;;;12.20;7.63;;;;;;;;;;5039602;28;20386;-78
2022/12/26 15:08:32;;;;;;;10.20;7.88;;;;;;;;;;5037530;28;20021;-76
2022/12/26 15:11:13;;;;;;;17.60;15.63;;;;;;;;;;5038196;28;20360;-77
2022/12/26 15:14:00;;;;;;;39.88;36.10;;;;;;;;;;5035351;28;20032;-78
2022/12/26 15:16:26;;;;;;;10.35;9.32;;;;;;;;;;5043304;28;20013;-77
2022/12/26 15:19:10;;;;;;;11.20;7.22;;;;;;;;;;5043521;28;20118;-78
2022/12/26 15:22:05;;;;;;;12.45;7.60;;;;;;;;;;5044007;28;20028;-78
2022/12/26 15:24:43;;;;;;;6.57;5.97;;;;;;;;;;5040597;28;20035;-78
2022/12/26 15:27:27;;;;;;;7.13;5.97;;;;;;;;;;5036866;28;20061;-78
2022/12/26 15:29:56;;;;;;;7.97;5.47;;;;;;;;;;5043288;28;20033;-78
2022/12/26 15:32:36;;;;;;;12.20;7.85;;;;;;;;;;5040058;28;20037;-76
2022/12/26 15:35:02;;;;;;;25.38;16.73;;;;;;;;;;5039584;28;20134;-78
2022/12/26 15:37:35;;;;;;;27.63;21.65;;;;;;;;;;5036588;28;20029;-77
2022/12/26 15:40:01;;;;;;;14.45;10.95;;;;;;;;;;5042771;28;20052;-77
2022/12/26 15:42:30;;;;;;;6.45;5.65;;;;;;;;;;5041392;28;20041;-77
2022/12/26 15:44:56;;;;;;;8.65;6.25;;;;;;;;;;5041796;28;20099;-77
2022/12/26 15:47:25;;;;;;;5.90;4.95;;;;;;;;;;5043568;28;20601;-78
2022/12/26 15:49:57;;;;;;;6.22;4.93;;;;;;;;;;5041843;28;20055;-77
2022/12/26 15:52:35;;;;;;;11.48;9.00;;;;;;;;;;5035971;28;20029;-77
2022/12/26 15:55:09;;;;;;;170.93;86.70;;;;;;;;;;5038963;28;20040;-77
2022/12/26 15:57:55;;;;;;;177.80;95.40;;;;;;;;;;5037227;28;20561;-76
2022/12/26 16:00:23;;;;;;;332.95;190.38;;;;;;;;;;5039113;28;20037;-77
2022/12/26 16:03:04;;;;;;;292.10;167.25;;;;;;;;;;5037228;28;20024;-78
2022/12/26 16:05:37;;;;;;;163.07;93.22;;;;;;;;;;5033894;28;20104;-77
2022/12/26 16:08:09;;;;;;;29.23;19.85;;;;;;;;;;5037828;28;20249;-77
2022/12/26 16:10:35;;;;;;;37.03;29.35;;;;;;;;;;5037998;28;20021;-77
2022/12/26 16:13:16;;;;;;;18.10;15.10;;;;;;;;;;5040348;28;20029;-78
2022/12/26 16:16:01;;;;;;;11.57;9.52;;;;;;;;;;5043605;28;20406;-78
2022/12/26 16:18:31;;;;;;;13.20;8.95;;;;;;;;;;5041526;28;20021;-78
2022/12/26 16:23:43;;;;;;;8.98;8.07;;;;;;;;;;5043266;28;20163;-78
2022/12/26 16:26:16;;;;;;;11.55;7.20;;;;;;;;;;5045138;28;20115;-78
2022/12/26 16:28:43;;;;;;;9.05;6.53;;;;;;;;;;5041322;28;20021;-77
2022/12/26 16:31:09;;;;;;;9.77;7.15;;;;;;;;;;5042632;28;20040;-77
2022/12/26 16:33:40;;;;;;;20.67;14.18;;;;;;;;;;5045421;28;20470;-76
2022/12/26 16:36:11;;;;;;;37.75;23.95;;;;;;;;;;5042427;28;20020;-77
2022/12/26 16:38:37;;;;;;;32.95;21.60;;;;;;;;;;5047026;28;20634;-77
2022/12/26 16:41:18;;;;;;;46.42;38.25;;;;;;;;;;5049928;28;20049;-77
2022/12/26 16:43:44;;;;;;;42.05;37.90;;;;;;;;;;5041209;28;20021;-77
2022/12/26 16:46:12;;;;;;;17.38;15.25;;;;;;;;;;5047670;28;20021;-78
2022/12/26 16:48:39;;;;;;;10.88;8.35;;;;;;;;;;5044765;28;20032;-77
2022/12/26 16:51:07;;;;;;;17.38;15.65;;;;;;;;;;5049216;28;20025;-77
2022/12/26 16:53:36;;;;;;;10.13;7.03;;;;;;;;;;5042977;28;20035;-77
2022/12/26 16:56:22;;;;;;;13.88;8.00;;;;;;;;;;5045636;28;20024;-77
2022/12/26 16:58:50;;;;;;;12.43;8.85;;;;;;;;;;5035440;28;20044;-77
2022/12/26 17:01:19;;;;;;;20.20;18.17;;;;;;;;;;5043121;28;20041;-78
2022/12/26 17:03:51;;;;;;;6.80;5.63;;;;;;;;;;5042483;28;20020;-77
2022/12/26 17:06:23;;;;;;;11.50;9.00;;;;;;;;;;5043408;28;20049;-76
2022/12/26 17:08:49;;;;;;;13.52;8.38;;;;;;;;;;5050113;28;20027;-76
2022/12/26 17:11:16;;;;;;;12.50;11.18;;;;;;;;;;5043775;28;20051;-78
2022/12/26 17:13:48;;;;;;;10.10;8.10;;;;;;;;;;5046599;28;20025;-78
2022/12/26 17:16:14;;;;;;;12.80;7.30;;;;;;;;;;5039414;28;20025;-77